Time;durP1;ratioP1;P1;durP2;ratioP2;P2;SDS_P1;SDS_P2;PMS_P1;PMS_P2;Temp;Humidity;BMP_temperature;BMP_pressure;BME280_temperature;BME280_humidity;BME280_pressure;Samples;Min_cycle;Max_cycle;Signal;HPM_P1;HPM_P2
2022/04/22 00:00:22;;;;;;;;;;;20.80;36.70;;;;;;5120575;27;20039;-52
2022/04/22 00:02:50;;;;;;;;;;;20.70;36.60;;;;;;5143989;27;19924;-53
2022/04/22 00:05:17;;;;;;;;;;;20.80;36.70;;;;;;5130292;27;19927;-49
2022/04/22 00:07:44;;;;;;;;;;;20.70;36.60;;;;;;5132258;27;19927;-53
2022/04/22 00:10:11;;;;;;;;;;;20.70;36.60;;;;;;5142130;27;19934;-49
2022/04/22 00:12:38;;;;;;;;;;;20.70;36.60;;;;;;5153348;27;19995;-48
2022/04/22 00:15:05;;;;;;;;;;;20.80;36.70;;;;;;5129546;27;19936;-51
2022/04/22 00:17:32;;;;;;;;;;;20.80;36.70;;;;;;5126418;27;19928;-50
2022/04/22 00:20:00;;;;;;;;;;;20.70;36.60;;;;;;5125885;27;19927;-53
2022/04/22 00:22:27;;;;;;;;;;;20.70;36.70;;;;;;5155224;27;19923;-53
2022/04/22 00:24:54;;;;;;;;;;;20.70;36.70;;;;;;5121034;27;20330;-47
2022/04/22 00:27:21;;;;;;;;;;;20.70;36.60;;;;;;5137286;27;19934;-51
2022/04/22 00:29:48;;;;;;;;;;;20.70;36.70;;;;;;5130682;27;19927;-52
2022/04/22 00:32:15;;;;;;;;;;;20.70;36.70;;;;;;5132259;27;20017;-56
2022/04/22 00:34:42;;;;;;;;;;;20.70;36.70;;;;;;5132097;27;20433;-55
2022/04/22 00:37:10;;;;;;;;;;;20.70;36.70;;;;;;5132394;27;20351;-53
2022/04/22 00:39:37;;;;;;;;;;;20.70;36.70;;;;;;5149577;27;19931;-53
2022/04/22 00:42:07;;;;;;;;;;;20.70;36.70;;;;;;5123543;27;20379;-49
2022/04/22 00:44:34;;;;;;;;;;;20.70;36.70;;;;;;5123040;27;19923;-50
2022/04/22 00:47:00;;;;;;;;;;;20.70;36.60;;;;;;5130481;27;20025;-48
2022/04/22 00:49:27;;;;;;;;;;;20.70;36.70;;;;;;5128707;27;19923;-58
2022/04/22 00:51:54;;;;;;;;;;;20.70;36.70;;;;;;5128397;27;20367;-53
2022/04/22 00:54:22;;;;;;;;;;;20.70;36.70;;;;;;5127811;27;19991;-51
2022/04/22 00:56:50;;;;;;;;;;;20.70;36.70;;;;;;5121961;27;20372;-48
2022/04/22 00:59:17;;;;;;;;;;;20.70;36.70;;;;;;5142999;27;19924;-47
2022/04/22 01:01:44;;;;;;;;;;;20.70;36.70;;;;;;5142159;27;19995;-54
2022/04/22 01:09:51;;;;;;;;;;;20.70;36.70;;;;;;5121730;27;19930;-53
2022/04/22 01:12:17;;;;;;;;;;;20.70;36.70;;;;;;5121868;27;19924;-52
2022/04/22 01:14:44;;;;;;;;;;;20.70;36.70;;;;;;5129684;27;19980;-53
2022/04/22 01:17:12;;;;;;;;;;;20.70;36.70;;;;;;5147264;27;19973;-49
2022/04/22 01:19:38;;;;;;;;;;;20.70;36.70;;;;;;5132488;27;19984;-52
2022/04/22 01:22:08;;;;;;;;;;;20.70;36.70;;;;;;5125789;27;19923;-52
2022/04/22 01:24:35;;;;;;;;;;;20.70;36.70;;;;;;5126039;27;19977;-54
2022/04/22 01:27:02;;;;;;;;;;;20.70;36.70;;;;;;5127727;27;19927;-52
2022/04/22 01:29:29;;;;;;;;;;;20.70;36.70;;;;;;5121400;27;19931;-52
2022/04/22 01:31:56;;;;;;;;;;;20.70;36.70;;;;;;5137874;27;19935;-52
2022/04/22 01:34:22;;;;;;;;;;;20.70;36.70;;;;;;5142037;27;19962;-54
2022/04/22 01:36:49;;;;;;;;;;;20.70;36.70;;;;;;5122756;27;19938;-51
2022/04/22 01:39:21;;;;;;;;;;;20.70;36.70;;;;;;5134124;27;19927;-55
2022/04/22 01:41:48;;;;;;;;;;;20.70;36.70;;;;;;5126149;27;19943;-50
2022/04/22 01:44:14;;;;;;;;;;;20.70;36.70;;;;;;5125790;27;20419;-49
2022/04/22 01:46:42;;;;;;;;;;;20.70;36.60;;;;;;5130478;27;19983;-49
2022/04/22 01:49:09;;;;;;;;;;;20.70;36.60;;;;;;5119027;27;20135;-55
2022/04/22 01:51:37;;;;;;;;;;;20.70;36.70;;;;;;5124749;27;20352;-53
2022/04/22 01:54:06;;;;;;;;;;;20.70;36.60;;;;;;5140188;27;19923;-51
2022/04/22 01:56:34;;;;;;;;;;;20.70;36.70;;;;;;5121040;27;19993;-53
2022/04/22 01:59:01;;;;;;;;;;;20.70;36.60;;;;;;5123209;27;19928;-52
2022/04/22 02:01:28;;;;;;;;;;;20.70;36.60;;;;;;5119624;27;19924;-55
2022/04/22 02:03:55;;;;;;;;;;;20.70;36.70;;;;;;5120737;27;19929;-53
2022/04/22 02:06:22;;;;;;;;;;;20.70;36.70;;;;;;5129142;27;19927;-52
2022/04/22 02:08:48;;;;;;;;;;;20.70;36.60;;;;;;5118812;27;19930;-52
2022/04/22 02:11:15;;;;;;;;;;;20.70;36.70;;;;;;5138720;27;19923;-50
2022/04/22 02:13:43;;;;;;;;;;;20.70;36.70;;;;;;5132028;27;19949;-48
2022/04/22 02:16:13;;;;;;;;;;;20.70;36.70;;;;;;5125547;27;19955;-56
2022/04/22 02:18:42;;;;;;;;;;;20.70;36.70;;;;;;5145518;27;19930;-49
2022/04/22 02:21:09;;;;;;;;;;;20.70;36.70;;;;;;5129263;27;20344;-51
2022/04/22 02:23:36;;;;;;;;;;;20.70;36.70;;;;;;5126263;27;19930;-47
2022/04/22 02:26:03;;;;;;;;;;;20.70;36.70;;;;;;5126948;27;19933;-52
2022/04/22 02:28:32;;;;;;;;;;;20.70;36.70;;;;;;5142217;27;19962;-50
2022/04/22 02:31:01;;;;;;;;;;;20.70;36.60;;;;;;5147937;27;20010;-51
2022/04/22 02:33:28;;;;;;;;;;;20.70;36.70;;;;;;5138791;27;19970;-52
2022/04/22 02:35:55;;;;;;;;;;;20.70;36.70;;;;;;5122632;27;19930;-52
2022/04/22 02:38:21;;;;;;;;;;;20.70;36.70;;;;;;5119430;27;19931;-48
2022/04/22 02:46:19;;;;;;;;;;;20.70;36.70;;;;;;5119234;27;19953;-52
2022/04/22 02:48:46;;;;;;;;;;;20.70;36.70;;;;;;5137942;27;20410;-55
2022/04/22 02:51:13;;;;;;;;;;;20.70;36.70;;;;;;5121392;27;19932;-51
2022/04/22 02:53:42;;;;;;;;;;;20.70;36.70;;;;;;5119920;27;20022;-55
2022/04/22 02:56:09;;;;;;;;;;;20.70;36.70;;;;;;5130876;27;19934;-50
2022/04/22 02:58:36;;;;;;;;;;;20.70;36.70;;;;;;5125516;27;19965;-56
2022/04/22 03:01:03;;;;;;;;;;;20.70;36.70;;;;;;5119405;27;19927;-52
2022/04/22 03:03:34;;;;;;;;;;;20.70;36.70;;;;;;5138668;27;19935;-54
2022/04/22 03:06:00;;;;;;;;;;;20.70;36.70;;;;;;5127009;28;20010;-51
2022/04/22 03:08:27;;;;;;;;;;;20.70;36.70;;;;;;5151022;27;19927;-49
2022/04/22 03:10:55;;;;;;;;;;;20.70;36.60;;;;;;5130368;27;19954;-53
2022/04/22 03:13:22;;;;;;;;;;;20.70;36.70;;;;;;5119785;28;19923;-54
2022/04/22 03:15:49;;;;;;;;;;;20.70;36.60;;;;;;5124277;27;19950;-54
2022/04/22 03:18:16;;;;;;;;;;;20.70;36.70;;;;;;5131982;28;20062;-52
2022/04/22 03:20:44;;;;;;;;;;;20.70;36.70;;;;;;5146325;27;19995;-52
2022/04/22 03:23:11;;;;;;;;;;;20.70;36.70;;;;;;5155423;27;19923;-53
2022/04/22 03:25:40;;;;;;;;;;;20.70;36.60;;;;;;5146157;27;19977;-55
2022/04/22 03:28:07;;;;;;;;;;;20.70;36.60;;;;;;5124384;27;19928;-49
2022/04/22 03:30:34;;;;;;;;;;;20.70;36.60;;;;;;5122341;27;19923;-53
2022/04/22 03:33:01;;;;;;;;;;;20.70;36.60;;;;;;5123131;27;19924;-54
2022/04/22 03:35:28;;;;;;;;;;;20.70;36.60;;;;;;5128348;27;19927;-51
2022/04/22 03:37:57;;;;;;;;;;;20.70;36.70;;;;;;5126115;27;19924;-53
2022/04/22 03:40:25;;;;;;;;;;;20.70;36.70;;;;;;5122643;27;19924;-57
2022/04/22 03:42:53;;;;;;;;;;;20.70;36.70;;;;;;5122936;27;19951;-52
2022/04/22 03:45:20;;;;;;;;;;;20.70;36.60;;;;;;5132070;27;20016;-46
2022/04/22 03:47:47;;;;;;;;;;;20.70;36.60;;;;;;5149832;27;19923;-47
2022/04/22 03:50:14;;;;;;;;;;;20.70;36.70;;;;;;5127523;27;20427;-51
2022/04/22 03:52:40;;;;;;;;;;;20.70;36.70;;;;;;5130208;27;19933;-52
2022/04/22 03:55:09;;;;;;;;;;;20.70;36.70;;;;;;5128039;27;20035;-51
2022/04/22 04:00:20;;;;;;;;;;;20.70;36.70;;;;;;5139511;27;20280;-52
2022/04/22 04:02:47;;;;;;;;;;;20.70;36.70;;;;;;5126581;27;19938;-50
2022/04/22 04:05:15;;;;;;;;;;;20.70;36.70;;;;;;5122217;27;20038;-52
2022/04/22 04:07:42;;;;;;;;;;;20.70;36.70;;;;;;5129025;27;19923;-55
2022/04/22 04:18:24;;;;;;;;;;;20.70;36.60;;;;;;5139954;27;19928;-52
2022/04/22 04:23:35;;;;;;;;;;;20.70;36.60;;;;;;5130843;27;20224;-52
2022/04/22 04:26:04;;;;;;;;;;;20.70;36.60;;;;;;5137752;27;19931;-53
2022/04/22 04:28:33;;;;;;;;;;;20.70;36.60;;;;;;5123067;27;19932;-50
2022/04/22 04:31:00;;;;;;;;;;;20.60;36.50;;;;;;5128519;27;19927;-53
2022/04/22 04:33:26;;;;;;;;;;;20.60;36.60;;;;;;5126058;27;19999;-51
2022/04/22 04:35:53;;;;;;;;;;;20.60;36.50;;;;;;5138822;27;19963;-53
2022/04/22 04:38:20;;;;;;;;;;;20.60;36.60;;;;;;5127491;27;20380;-48
2022/04/22 04:40:47;;;;;;;;;;;20.60;36.60;;;;;;5122146;27;19959;-53
2022/04/22 04:43:16;;;;;;;;;;;20.70;36.60;;;;;;5125484;27;19939;-51
2022/04/22 04:45:44;;;;;;;;;;;20.60;36.50;;;;;;5129271;27;20156;-54
2022/04/22 04:48:10;;;;;;;;;;;20.60;36.50;;;;;;5130519;27;20024;-51
2022/04/22 04:50:37;;;;;;;;;;;20.70;36.70;;;;;;5147832;27;19931;-55
2022/04/22 04:53:04;;;;;;;;;;;20.60;36.60;;;;;;5130513;27;19931;-47
2022/04/22 04:55:31;;;;;;;;;;;20.70;36.70;;;;;;5131723;27;19927;-46
2022/04/22 04:57:58;;;;;;;;;;;20.70;36.70;;;;;;5130880;27;19924;-49
2022/04/22 05:00:26;;;;;;;;;;;20.70;36.70;;;;;;5131898;27;19927;-47
2022/04/22 05:02:55;;;;;;;;;;;20.60;36.60;;;;;;5132238;27;19944;-52
2022/04/22 05:05:21;;;;;;;;;;;20.60;36.60;;;;;;5121180;27;20070;-48
2022/04/22 05:07:49;;;;;;;;;;;20.70;36.70;;;;;;5151375;27;19930;-50
2022/04/22 05:10:16;;;;;;;;;;;20.70;36.70;;;;;;5133471;27;19927;-47
2022/04/22 05:12:43;;;;;;;;;;;20.70;36.70;;;;;;5145301;27;19955;-49
2022/04/22 05:15:10;;;;;;;;;;;20.60;36.60;;;;;;5142759;27;19923;-52
2022/04/22 05:17:40;;;;;;;;;;;20.70;36.70;;;;;;5134572;27;19923;-47
2022/04/22 05:20:07;;;;;;;;;;;20.60;36.60;;;;;;5130697;27;19952;-52
2022/04/22 05:22:34;;;;;;;;;;;20.60;36.60;;;;;;5125629;27;20454;-50
2022/04/22 05:25:00;;;;;;;;;;;20.70;36.70;;;;;;5131042;27;19976;-48
2022/04/22 05:27:27;;;;;;;;;;;20.60;36.60;;;;;;5144777;27;19928;-47
2022/04/22 05:32:40;;;;;;;;;;;20.60;36.60;;;;;;5137614;27;20037;-52
2022/04/22 05:35:08;;;;;;;;;;;20.60;36.60;;;;;;5126392;27;19930;-49
2022/04/22 05:37:44;;;;;;;;;;;20.70;36.70;;;;;;5130092;27;19932;-52
2022/04/22 05:40:11;;;;;;;;;;;20.60;36.60;;;;;;5130670;27;19972;-50
2022/04/22 05:42:39;;;;;;;;;;;20.70;36.70;;;;;;5122588;27;19923;-50
2022/04/22 05:45:06;;;;;;;;;;;20.70;36.70;;;;;;5131810;27;19968;-53
2022/04/22 05:47:33;;;;;;;;;;;20.70;36.70;;;;;;5126126;27;19923;-51
2022/04/22 05:50:01;;;;;;;;;;;20.70;36.70;;;;;;5121892;27;19995;-52
2022/04/22 05:52:28;;;;;;;;;;;20.70;36.70;;;;;;5126352;27;19959;-51
2022/04/22 05:54:58;;;;;;;;;;;20.60;36.60;;;;;;5123936;27;19976;-52
2022/04/22 05:57:25;;;;;;;;;;;20.70;36.70;;;;;;5130517;27;19928;-49
2022/04/22 05:59:52;;;;;;;;;;;20.70;36.70;;;;;;5128196;27;20013;-50
2022/04/22 06:02:19;;;;;;;;;;;20.60;36.60;;;;;;5125539;27;20546;-47
2022/04/22 06:04:46;;;;;;;;;;;20.70;36.70;;;;;;5125636;27;19946;-54
2022/04/22 06:07:14;;;;;;;;;;;20.70;37.40;;;;;;5130452;27;19923;-48
2022/04/22 06:12:25;;;;;;;;;;;20.70;36.70;;;;;;5147441;27;19938;-54
2022/04/22 06:14:53;;;;;;;;;;;20.70;36.70;;;;;;5126298;27;19928;-46
2022/04/22 06:17:20;;;;;;;;;;;20.70;36.70;;;;;;5128623;27;20384;-51
2022/04/22 06:19:46;;;;;;;;;;;20.70;36.70;;;;;;5127671;27;19931;-49
2022/04/22 06:22:14;;;;;;;;;;;20.70;36.70;;;;;;5126793;27;19931;-49
2022/04/22 06:24:41;;;;;;;;;;;20.70;36.70;;;;;;5125279;27;19923;-52
2022/04/22 06:27:09;;;;;;;;;;;20.70;36.70;;;;;;5124196;27;19923;-52
2022/04/22 06:29:36;;;;;;;;;;;20.70;36.70;;;;;;5126002;27;19997;-51
2022/04/22 06:32:03;;;;;;;;;;;20.70;36.70;;;;;;5147950;27;19954;-51
2022/04/22 06:34:30;;;;;;;;;;;20.70;36.70;;;;;;5123377;27;20529;-52
2022/04/22 06:36:57;;;;;;;;;;;20.70;36.70;;;;;;5129558;27;19984;-51
2022/04/22 06:45:46;;;;;;;;;;;20.70;36.70;;;;;;5108312;27;19931;-52
2022/04/22 06:47:41;;;;;;;;;;;20.70;36.70;;;;;;5122176;27;19976;-47
2022/04/22 06:50:09;;;;;;;;;;;20.70;36.80;;;;;;5131840;27;19923;-54
2022/04/22 06:52:36;;;;;;;;;;;20.70;36.70;;;;;;5124358;27;19955;-48
2022/04/22 06:55:04;;;;;;;;;;;20.70;36.80;;;;;;5128426;27;19931;-48
2022/04/22 06:57:31;;;;;;;;;;;20.70;36.80;;;;;;5133403;27;19923;-53
2022/04/22 06:59:59;;;;;;;;;;;20.70;36.80;;;;;;5117317;27;20366;-49
2022/04/22 07:02:26;;;;;;;;;;;20.70;36.80;;;;;;5121809;27;20552;-51
2022/04/22 07:04:54;;;;;;;;;;;20.70;36.80;;;;;;5124077;27;20500;-51
2022/04/22 07:07:21;;;;;;;;;;;20.70;36.80;;;;;;5123462;27;20475;-49
2022/04/22 07:09:48;;;;;;;;;;;20.70;36.80;;;;;;5126119;27;19990;-48
2022/04/22 07:12:16;;;;;;;;;;;20.70;36.80;;;;;;5126863;27;19927;-54
2022/04/22 07:14:44;;;;;;;;;;;20.70;36.80;;;;;;5127723;27;19952;-52
2022/04/22 07:17:11;;;;;;;;;;;20.70;36.80;;;;;;5125703;27;21636;-52
2022/04/22 07:19:38;;;;;;;;;;;20.60;36.70;;;;;;5143347;27;20360;-52
2022/04/22 07:22:04;;;;;;;;;;;20.70;36.80;;;;;;5125052;28;19930;-52
2022/04/22 07:24:32;;;;;;;;;;;20.70;36.80;;;;;;5125781;27;19954;-55
2022/04/22 07:26:58;;;;;;;;;;;20.70;36.90;;;;;;5145534;27;19923;-53
2022/04/22 07:29:27;;;;;;;;;;;20.70;36.90;;;;;;5127142;27;19931;-53
2022/04/22 07:31:53;;;;;;;;;;;20.70;36.90;;;;;;5128956;27;19955;-55
2022/04/22 07:34:20;;;;;;;;;;;20.70;36.90;;;;;;5127120;27;19965;-52
2022/04/22 07:36:47;;;;;;;;;;;20.70;36.90;;;;;;5117909;27;19928;-50
2022/04/22 07:39:14;;;;;;;;;;;20.70;36.90;;;;;;5125910;27;20333;-51
2022/04/22 07:41:41;;;;;;;;;;;20.70;36.90;;;;;;5123106;27;19955;-48
2022/04/22 07:46:59;;;;;;;;;;;20.70;36.90;;;;;;5121436;27;19950;-54
2022/04/22 07:49:27;;;;;;;;;;;20.70;36.90;;;;;;5123265;27;19923;-55
2022/04/22 07:51:54;;;;;;;;;;;20.70;36.90;;;;;;5123121;27;19927;-53
2022/04/22 07:54:20;;;;;;;;;;;20.70;36.90;;;;;;5146534;27;19927;-48
2022/04/22 07:56:47;;;;;;;;;;;20.70;37.00;;;;;;5118332;27;19931;-49
2022/04/22 07:59:13;;;;;;;;;;;20.70;37.00;;;;;;5140937;27;19923;-51
2022/04/22 08:01:40;;;;;;;;;;;20.70;37.00;;;;;;5123703;27;19927;-48
2022/04/22 08:04:09;;;;;;;;;;;20.70;37.00;;;;;;5124372;27;20014;-48
2022/04/22 08:06:37;;;;;;;;;;;20.80;37.20;;;;;;5148706;27;20459;-54
2022/04/22 08:09:03;;;;;;;;;;;20.80;37.20;;;;;;5120481;27;19927;-51
2022/04/22 08:11:31;;;;;;;;;;;20.80;37.20;;;;;;5125837;27;19984;-53
2022/04/22 08:13:59;;;;;;;;;;;20.80;37.30;;;;;;5127601;27;19930;-49
2022/04/22 08:16:26;;;;;;;;;;;20.80;37.30;;;;;;5122039;27;20340;-52
2022/04/22 08:18:52;;;;;;;;;;;20.80;37.30;;;;;;5129292;27;20349;-53
2022/04/22 08:21:21;;;;;;;;;;;20.80;37.40;;;;;;5126447;27;20388;-50
2022/04/22 08:23:48;;;;;;;;;;;20.80;37.40;;;;;;5127210;27;20336;-52
2022/04/22 08:26:15;;;;;;;;;;;20.80;37.40;;;;;;5142053;27;19930;-54
2022/04/22 08:28:43;;;;;;;;;;;20.80;37.40;;;;;;5122145;27;19927;-53
2022/04/22 08:31:10;;;;;;;;;;;20.80;37.40;;;;;;5139479;27;19923;-51
2022/04/22 08:33:38;;;;;;;;;;;20.80;37.50;;;;;;5128914;27;19950;-53
2022/04/22 08:36:05;;;;;;;;;;;20.80;37.50;;;;;;5122772;27;19934;-56
2022/04/22 08:38:34;;;;;;;;;;;20.80;37.60;;;;;;5127269;27;19966;-52
2022/04/22 08:41:00;;;;;;;;;;;20.80;37.50;;;;;;5131238;27;20400;-52
2022/04/22 08:43:27;;;;;;;;;;;20.80;37.60;;;;;;5122288;27;20299;-54
2022/04/22 08:45:54;;;;;;;;;;;20.80;37.50;;;;;;5126931;27;20338;-54
2022/04/22 08:51:05;;;;;;;;;;;20.80;37.60;;;;;;5118074;27;19927;-56
2022/04/22 08:53:34;;;;;;;;;;;20.80;37.60;;;;;;5144917;27;19962;-57
2022/04/22 08:56:02;;;;;;;;;;;20.80;37.70;;;;;;5130174;27;19977;-56
2022/04/22 08:58:29;;;;;;;;;;;20.80;37.70;;;;;;5118614;27;19931;-52
2022/04/22 09:00:57;;;;;;;;;;;20.80;37.90;;;;;;5118625;27;19923;-54
2022/04/22 09:03:26;;;;;;;;;;;20.80;37.50;;;;;;5135915;27;19931;-53
2022/04/22 09:05:52;;;;;;;;;;;20.70;37.20;;;;;;5124038;27;20025;-51
2022/04/22 09:08:19;;;;;;;;;;;20.70;37.10;;;;;;5123732;27;19958;-54
2022/04/22 09:10:53;;;;;;;;;;;20.70;37.10;;;;;;5118282;27;20017;-51
2022/04/22 09:13:23;;;;;;;;;;;20.60;37.10;;;;;;5118614;27;19934;-52
2022/04/22 09:15:50;;;;;;;;;;;20.60;36.90;;;;;;5117542;27;19953;-52
2022/04/22 09:18:17;;;;;;;;;;;20.60;37.50;;;;;;5117505;27;20014;-52
2022/04/22 09:20:44;;;;;;;;;;;20.50;37.50;;;;;;5115290;27;19927;-55
2022/04/22 09:23:24;;;;;;;;;;;20.50;37.50;;;;;;5132983;27;19924;-52
2022/04/22 09:25:51;;;;;;;;;;;20.50;37.70;;;;;;5118305;27;19979;-50
2022/04/22 09:28:19;;;;;;;;;;;20.50;37.70;;;;;;5121687;27;19926;-49
2022/04/22 09:30:55;;;;;;;;;;;20.50;37.70;;;;;;5138125;27;19966;-51
2022/04/22 09:33:22;;;;;;;;;;;20.50;37.70;;;;;;5137655;27;19969;-51
2022/04/22 09:44:06;;;;;;;;;;;20.40;37.90;;;;;;5119762;27;19927;-52
2022/04/22 09:46:33;;;;;;;;;;;20.40;38.00;;;;;;5119348;27;19923;-52
2022/04/22 09:49:00;;;;;;;;;;;20.40;38.20;;;;;;5138192;27;19968;-55
2022/04/22 09:51:30;;;;;;;;;;;20.30;37.50;;;;;;5120251;27;19935;-53
2022/04/22 09:54:00;;;;;;;;;;;20.30;38.10;;;;;;5109735;27;19923;-49
2022/04/22 09:56:27;;;;;;;;;;;20.30;38.10;;;;;;5118809;27;20026;-50
2022/04/22 09:58:55;;;;;;;;;;;20.30;38.20;;;;;;5117030;27;19923;-49
2022/04/22 10:01:24;;;;;;;;;;;20.30;38.20;;;;;;5123005;27;19923;-52
2022/04/22 10:03:50;;;;;;;;;;;20.30;38.20;;;;;;5124081;27;19972;-50
2022/04/22 10:06:17;;;;;;;;;;;20.30;38.20;;;;;;5118315;27;19930;-53
2022/04/22 10:08:46;;;;;;;;;;;20.20;38.10;;;;;;5119259;27;19927;-49
2022/04/22 10:11:14;;;;;;;;;;;20.20;38.10;;;;;;5118883;27;20347;-47
2022/04/22 10:13:42;;;;;;;;;;;20.20;38.20;;;;;;5123320;27;20279;-52
2022/04/22 10:16:09;;;;;;;;;;;20.20;38.20;;;;;;5121905;27;20018;-51
2022/04/22 10:18:38;;;;;;;;;;;20.20;38.30;;;;;;5116899;27;19963;-48
2022/04/22 10:21:05;;;;;;;;;;;20.20;38.20;;;;;;5121107;27;19950;-49
2022/04/22 10:23:31;;;;;;;;;;;20.20;38.20;;;;;;5138879;27;20012;-51
2022/04/22 10:25:58;;;;;;;;;;;20.20;38.20;;;;;;5123755;27;19928;-49
2022/04/22 10:28:25;;;;;;;;;;;20.20;38.30;;;;;;5121645;27;19924;-49
2022/04/22 10:30:52;;;;;;;;;;;20.10;38.10;;;;;;5115279;27;20049;-53
2022/04/22 10:33:19;;;;;;;;;;;20.10;38.00;;;;;;5118432;27;20014;-48
2022/04/22 10:35:47;;;;;;;;;;;20.10;38.10;;;;;;5122849;27;20136;-50
2022/04/22 10:38:27;;;;;;;;;;;20.10;37.90;;;;;;5115411;27;19930;-49
2022/04/22 10:40:54;;;;;;;;;;;20.10;38.00;;;;;;5114999;27;19927;-48
2022/04/22 10:43:20;;;;;;;;;;;20.00;37.90;;;;;;5116968;27;19923;-51
2022/04/22 10:48:33;;;;;;;;;;;20.00;37.80;;;;;;5120072;27;19923;-52
2022/04/22 10:51:03;;;;;;;;;;;20.00;37.80;;;;;;5106848;27;20919;-53
2022/04/22 10:53:33;;;;;;;;;;;20.00;37.80;;;;;;5137350;27;20026;-52
2022/04/22 10:56:15;;;;;;;;;;;20.00;37.90;;;;;;5133640;27;19976;-51
2022/04/22 10:58:42;;;;;;;;;;;20.00;37.90;;;;;;5115147;27;19927;-47
2022/04/22 11:01:13;;;;;;;;;;;19.90;37.70;;;;;;5114706;27;20015;-52
2022/04/22 11:03:39;;;;;;;;;;;19.90;37.80;;;;;;5114425;27;19980;-48
2022/04/22 11:06:08;;;;;;;;;;;19.90;37.80;;;;;;5139439;27;19967;-51
2022/04/22 11:08:37;;;;;;;;;;;19.90;37.70;;;;;;5142010;27;19927;-47
2022/04/22 11:11:05;;;;;;;;;;;19.90;37.60;;;;;;5134323;27;19923;-51
2022/04/22 11:13:33;;;;;;;;;;;19.90;37.50;;;;;;5138065;27;19931;-53
2022/04/22 11:16:00;;;;;;;;;;;19.90;37.50;;;;;;5117620;28;19923;-52
2022/04/22 11:18:27;;;;;;;;;;;19.80;37.60;;;;;;5119507;27;19999;-48
2022/04/22 11:20:54;;;;;;;;;;;19.80;37.60;;;;;;5120475;27;19927;-51
2022/04/22 11:23:22;;;;;;;;;;;19.80;37.60;;;;;;5119502;27;19985;-49
2022/04/22 11:25:59;;;;;;;;;;;19.80;37.60;;;;;;5116391;27;19927;-53
2022/04/22 11:28:34;;;;;;;;;;;19.80;37.40;;;;;;5116748;27;19954;-51
2022/04/22 11:31:02;;;;;;;;;;;19.80;37.40;;;;;;5141582;27;20336;-48
2022/04/22 11:33:29;;;;;;;;;;;19.80;37.40;;;;;;5136934;27;20016;-51
2022/04/22 11:35:57;;;;;;;;;;;19.80;37.40;;;;;;5118046;27;19955;-54
2022/04/22 11:38:25;;;;;;;;;;;19.80;37.50;;;;;;5118838;27;19985;-53
2022/04/22 11:40:52;;;;;;;;;;;19.80;37.50;;;;;;5125442;27;19927;-50
2022/04/22 11:43:20;;;;;;;;;;;19.80;37.60;;;;;;5125380;27;20009;-52
2022/04/22 11:45:48;;;;;;;;;;;19.80;37.70;;;;;;5124273;27;20398;-52
2022/04/22 11:48:15;;;;;;;;;;;19.80;37.70;;;;;;5123087;27;19927;-51
2022/04/22 11:50:42;;;;;;;;;;;19.80;37.60;;;;;;5142143;27;20505;-53
2022/04/22 11:53:13;;;;;;;;;;;19.80;37.60;;;;;;5143647;27;19931;-49
2022/04/22 11:55:43;;;;;;;;;;;19.80;37.60;;;;;;5126363;27;19931;-47
2022/04/22 11:58:10;;;;;;;;;;;19.80;37.60;;;;;;5121901;27;20315;-50
2022/04/22 12:06:07;;;;;;;;;;;19.80;37.30;;;;;;5139263;27;20334;-52
2022/04/22 12:08:34;;;;;;;;;;;19.70;37.20;;;;;;5144142;27;19953;-53
2022/04/22 12:11:02;;;;;;;;;;;19.70;37.20;;;;;;5124534;27;19945;-55
2022/04/22 12:13:29;;;;;;;;;;;19.70;37.30;;;;;;5127184;27;19998;-56
2022/04/22 12:15:56;;;;;;;;;;;19.80;37.40;;;;;;5129819;27;20038;-50
2022/04/22 12:18:29;;;;;;;;;;;19.80;37.40;;;;;;5125035;27;20283;-50
2022/04/22 12:20:56;;;;;;;;;;;19.80;37.40;;;;;;5126316;27;19927;-55
2022/04/22 12:23:23;;;;;;;;;;;19.80;37.40;;;;;;5121197;27;20417;-49
2022/04/22 12:25:53;;;;;;;;;;;19.90;37.50;;;;;;5144665;27;19984;-50
2022/04/22 12:28:22;;;;;;;;;;;19.90;37.50;;;;;;5124304;27;20376;-50
2022/04/22 12:30:48;;;;;;;;;;;19.90;37.50;;;;;;5128934;27;19923;-52
2022/04/22 12:33:19;;;;;;;;;;;20.00;37.60;;;;;;5125266;27;20004;-49
2022/04/22 12:35:46;;;;;;;;;;;20.00;37.60;;;;;;5123419;27;19924;-54
2022/04/22 12:38:14;;;;;;;;;;;20.00;37.70;;;;;;5127646;27;19954;-51
2022/04/22 12:40:47;;;;;;;;;;;20.10;37.90;;;;;;5131931;27;19923;-52
2022/04/22 12:43:28;;;;;;;;;;;20.10;37.90;;;;;;5127539;27;19982;-50
2022/04/22 12:54:12;;;;;;;;;;;20.20;38.10;;;;;;5138822;27;20049;-55
2022/04/22 12:56:39;;;;;;;;;;;20.30;38.20;;;;;;5125119;27;19955;-51
2022/04/22 12:59:08;;;;;;;;;;;20.30;38.20;;;;;;5120643;27;19931;-52
2022/04/22 13:01:36;;;;;;;;;;;20.30;38.30;;;;;;5125581;27;19934;-54
2022/04/22 13:04:03;;;;;;;;;;;20.30;38.30;;;;;;5126726;27;20042;-51
2022/04/22 13:06:37;;;;;;;;;;;20.40;38.30;;;;;;5143496;27;19949;-57
2022/04/22 13:09:04;;;;;;;;;;;20.40;38.30;;;;;;5125531;27;19957;-53
2022/04/22 13:11:31;;;;;;;;;;;20.40;38.30;;;;;;5144667;27;19931;-53
2022/04/22 13:13:58;;;;;;;;;;;20.40;38.30;;;;;;5127421;27;19933;-53
2022/04/22 13:16:26;;;;;;;;;;;20.40;38.30;;;;;;5123448;27;19931;-53
2022/04/22 13:18:53;;;;;;;;;;;20.40;38.30;;;;;;5127501;27;19927;-53
2022/04/22 13:21:19;;;;;;;;;;;20.40;38.40;;;;;;5121127;27;20567;-55
2022/04/22 13:23:46;;;;;;;;;;;20.40;38.40;;;;;;5120833;27;19934;-53
2022/04/22 13:26:13;;;;;;;;;;;20.40;38.30;;;;;;5125727;27;19928;-50
2022/04/22 13:28:40;;;;;;;;;;;20.40;38.30;;;;;;5123360;27;19927;-53
2022/04/22 13:31:06;;;;;;;;;;;20.40;38.30;;;;;;5114023;27;20075;-52
2022/04/22 13:33:34;;;;;;;;;;;20.40;38.40;;;;;;5120164;27;19934;-53
2022/04/22 13:36:02;;;;;;;;;;;20.40;38.40;;;;;;5118447;27;19966;-47
2022/04/22 13:38:30;;;;;;;;;;;20.50;38.60;;;;;;5141330;27;19923;-55
2022/04/22 13:40:57;;;;;;;;;;;20.50;38.60;;;;;;5139276;27;19955;-56
2022/04/22 13:43:26;;;;;;;;;;;20.50;38.60;;;;;;5119429;27;20279;-54
2022/04/22 13:54:07;;;;;;;;;;;20.60;39.00;;;;;;5121968;27;19927;-53
2022/04/22 13:56:34;;;;;;;;;;;20.60;39.00;;;;;;5132442;27;19923;-49
2022/04/22 13:59:01;;;;;;;;;;;20.60;39.40;;;;;;5110805;27;19930;-47
2022/04/22 14:01:28;;;;;;;;;;;20.60;40.00;;;;;;5110228;27;19934;-52
2022/04/22 14:03:56;;;;;;;;;;;20.60;39.30;;;;;;5121274;27;19927;-47
2022/04/22 14:06:23;;;;;;;;;;;20.60;39.30;;;;;;5117371;27;20010;-47
2022/04/22 14:08:50;;;;;;;;;;;20.60;39.40;;;;;;5121540;27;20288;-51
2022/04/22 14:11:17;;;;;;;;;;;20.50;39.30;;;;;;5121360;27;19923;-47
2022/04/22 14:13:45;;;;;;;;;;;20.50;39.30;;;;;;5124949;27;19934;-48
2022/04/22 14:16:12;;;;;;;;;;;20.50;39.20;;;;;;5117158;27;20421;-53
2022/04/22 14:18:40;;;;;;;;;;;20.50;39.20;;;;;;5118097;27;19929;-48
2022/04/22 14:21:08;;;;;;;;;;;20.40;39.90;;;;;;5110860;27;19972;-47
2022/04/22 14:23:35;;;;;;;;;;;20.40;39.40;;;;;;5118490;27;19923;-53
2022/04/22 14:26:02;;;;;;;;;;;20.40;39.40;;;;;;5110307;27;19930;-47
2022/04/22 14:28:29;;;;;;;;;;;20.40;39.40;;;;;;5116039;27;19923;-50
2022/04/22 14:30:56;;;;;;;;;;;20.40;39.40;;;;;;5136002;27;19977;-46
2022/04/22 14:33:23;;;;;;;;;;;20.40;39.30;;;;;;5120859;27;19934;-49
2022/04/22 14:35:50;;;;;;;;;;;20.30;39.10;;;;;;5116220;27;19931;-49
2022/04/22 14:38:18;;;;;;;;;;;20.30;39.00;;;;;;5132324;27;19984;-50
2022/04/22 14:40:45;;;;;;;;;;;20.30;39.00;;;;;;5121964;27;20034;-50
2022/04/22 14:43:11;;;;;;;;;;;20.30;38.90;;;;;;5120080;27;19931;-48
2022/04/22 14:45:38;;;;;;;;;;;20.30;39.00;;;;;;5114020;27;20073;-53
2022/04/22 14:48:05;;;;;;;;;;;20.20;38.90;;;;;;5136467;27;19941;-52
2022/04/22 14:50:32;;;;;;;;;;;20.20;39.00;;;;;;5121434;27;19939;-52
2022/04/22 14:52:59;;;;;;;;;;;20.20;39.00;;;;;;5112949;27;19935;-54
2022/04/22 14:55:27;;;;;;;;;;;20.20;39.00;;;;;;5123032;27;20014;-50
2022/04/22 14:57:53;;;;;;;;;;;20.20;39.00;;;;;;5115832;27;19924;-50
2022/04/22 15:00:20;;;;;;;;;;;20.20;39.10;;;;;;5123857;27;20291;-51
2022/04/22 15:02:47;;;;;;;;;;;20.10;39.10;;;;;;5116278;27;19933;-50
2022/04/22 15:05:14;;;;;;;;;;;20.10;39.10;;;;;;5111884;27;20296;-49
2022/04/22 15:07:41;;;;;;;;;;;20.10;39.10;;;;;;5137482;27;19934;-54
2022/04/22 15:10:08;;;;;;;;;;;20.10;39.20;;;;;;5118074;27;19931;-52
2022/04/22 15:12:36;;;;;;;;;;;20.10;39.20;;;;;;5119891;27;19945;-50
2022/04/22 15:15:03;;;;;;;;;;;20.10;39.20;;;;;;5117252;27;20293;-52
2022/04/22 15:25:45;;;;;;;;;;;20.10;39.40;;;;;;5092945;27;19939;-51
2022/04/22 15:28:14;;;;;;;;;;;20.00;39.20;;;;;;5127278;27;19931;-52
2022/04/22 15:30:59;;;;;;;;;;;20.00;39.30;;;;;;5118738;27;20379;-48
2022/04/22 15:33:26;;;;;;;;;;;20.00;39.20;;;;;;5117349;27;19931;-55
2022/04/22 15:35:53;;;;;;;;;;;20.00;39.20;;;;;;5123279;27;20014;-50
2022/04/22 15:38:20;;;;;;;;;;;20.00;39.20;;;;;;5115295;27;19949;-50
2022/04/22 15:40:47;;;;;;;;;;;20.00;39.30;;;;;;5135936;27;20022;-51